Hovedside
METAR-TAF:

METAR-TAF

Lufthavner :

Københavns lufthavn

København, Danmark

breddegrad: 55-37N, lengdegrad: 012-39E, høyde over havet: 5 m

Gjeldene værobservasjon

Denne rapporten ble laget for 15 minutter siden, klokken 04:50 UTC
Vind 6 kt fra Øst
Temperatur 10°C
Luftfuktighet 87%
Trykk 1008 hPa
Sikt 10 km eller mer

METAR: EKCH 250450Z AUTO 09006KT 9999NDV NCD 10/08 Q1008 NOSIG

Tid: 07:05 (05:05 UTC)

Varsel

Denne rapporten ble laget for 5 timer og 51 minutter siden, klokken 23:14 UTC
Varsel gyldig fra 25. klokken 00 UTC til 25. klokken 24 UTC
Vind 10 kt fra Øst
Sikt 10 km eller mer
ingen skyer under 1500 m og ingen bygeskyer

TAF: EKCH 242314Z 2500/2524 10010KT CAVOK

Værobservasjoner og værvarsel for over 4000 flyplasser (METAR- og TAF-rapporter).

Tilgjengelige stasjoner er representert av de røde og gule prikkene på kartet.

Hold musepekeren over prikken for å se navnet på stasjonen.

Klikk så for å se værobservasjoner og -varsler.

For å forandre kartet kan du klikke på den grønne knappen med svart kryss for å zoome inn, på den grønne knappen med strek for å zoome ut, eller på de grønne pilene for å se tilstøtende kart.


METAR-TAF: